Time,TemperatureF,DewpointF,PressureIn,WindDirection,WindDirectionDegrees,WindSpeedMPH,WindSpeedGustMPH,Humidity,HourlyPrecipIn,Conditions,Clouds,dailyrainin,SoftwareType,DateUTC
2013-03-22 00:02:00,32.5,32.3,28.41,West,270,5.8,5.8,99,0.02,RA,,0.00,WeatherDisplay:10.37,2013-03-22 05:02:00,
2013-03-22 00:07:00,32.5,32.3,28.41,North,360,4.6,4.6,99,0.02,RA,,0.00,WeatherDisplay:10.37,2013-03-22 05:07:00,
2013-03-22 00:12:00,32.5,32.3,28.41,North,360,3.5,3.5,99,0.02,CLR,,0.00,WeatherDisplay:10.37,2013-03-22 05:12:00,
2013-03-22 00:17:00,32.5,32.3,28.41,SSW,202,4.6,4.6,99,0.02,CLR,,0.00,WeatherDisplay:10.37,2013-03-22 05:17:00,
2013-03-22 00:22:00,32.5,32.3,28.41,SW,225,5.8,5.8,99,0.02,CLR,,0.00,WeatherDisplay:10.37,2013-03-22 05:22:00,
2013-03-22 00:27:00,32.5,32.3,28.40,NNE,22,4.6,4.6,99,0.02,CLR,,0.00,WeatherDisplay:10.37,2013-03-22 05:27:00,
2013-03-22 00:33:00,32.5,32.3,28.40,NNW,338,3.5,3.5,99,0.01,CLR,,0.00,WeatherDisplay:10.37,2013-03-22 05:33:00,
2013-03-22 00:38:00,32.5,32.3,28.40,NNE,22,4.2,4.4,99,0.01,CLR,,0.00,WeatherDisplay:10.37,2013-03-22 05:38:00,
2013-03-22 00:43:00,32.4,32.2,28.40,ESE,112,5.8,5.8,99,0.01,CLR,,0.00,WeatherDisplay:10.37,2013-03-22 05:43:00,
2013-03-22 00:48:00,32.4,32.2,28.40,South,180,3.5,3.5,99,0.00,CLR,,0.00,WeatherDisplay:10.37,2013-03-22 05:48:00,
2013-03-22 00:53:00,32.4,32.2,28.39,West,270,4.6,4.6,99,0.01,RA,,0.01,WeatherDisplay:10.37,2013-03-22 05:53:00,
2013-03-22 00:58:00,32.2,32.0,28.39,South,180,4.7,4.7,99,0.01,RA,,0.01,WeatherDisplay:10.37,2013-03-22 05:58:00,
2013-03-22 01:03:00,32.2,32.0,28.39,NNW,338,3.5,4.3,99,0.01,CLR,,0.01,WeatherDisplay:10.37,2013-03-22 06:03:00,
2013-03-22 01:08:00,32.2,32.0,28.39,NE,45,5.8,5.8,99,0.01,CLR,,0.01,WeatherDisplay:10.37,2013-03-22 06:08:00,
2013-03-22 01:13:00,32.2,32.0,28.39,NNW,338,4.2,4.2,99,0.01,CLR,,0.01,WeatherDisplay:10.37,2013-03-22 06:13:00,
2013-03-22 01:18:00,32.0,31.8,28.39,North,360,3.7,3.8,99,0.02,RA,,0.02,WeatherDisplay:10.37,2013-03-22 06:18:00,
2013-03-22 01:23:00,32.0,31.8,28.39,NE,45,3.7,3.7,99,0.02,RA,,0.02,WeatherDisplay:10.37,2013-03-22 06:23:00,
2013-03-22 01:28:00,32.0,31.8,28.40,ENE,68,3.7,3.7,99,0.02,CLR,,0.02,WeatherDisplay:10.37,2013-03-22 06:28:00,
2013-03-22 01:33:00,32.0,31.8,28.40,WNW,292,3.5,3.5,99,0.02,CLR,,0.02,WeatherDisplay:10.37,2013-03-22 06:33:00,
2013-03-22 01:38:00,32.0,31.8,28.40,NW,315,3.5,3.5,99,0.06,RA,,0.06,WeatherDisplay:10.37,2013-03-22 06:38:00,
2013-03-22 01:43:00,32.0,31.8,28.40,SSE,158,5.8,5.8,99,0.08,RA,,0.09,WeatherDisplay:10.37,2013-03-22 06:43:00,
2013-03-22 01:48:00,32.0,31.8,28.40,ENE,68,4.6,4.6,99,0.10,RA,,0.10,WeatherDisplay:10.37,2013-03-22 06:48:00,
2013-03-22 01:53:00,32.0,31.8,28.39,WSW,248,4.6,4.6,99,0.11,RA,,0.12,WeatherDisplay:10.37,2013-03-22 06:53:00,
2013-03-22 01:58:00,32.0,31.8,28.39,NNE,22,8.1,8.1,99,0.12,RA,,0.13,WeatherDisplay:10.37,2013-03-22 06:58:00,
2013-03-22 02:04:00,32.0,31.8,28.40,North,360,3.7,3.7,99,0.12,RA,,0.13,WeatherDisplay:10.37,2013-03-22 07:04:00,
2013-03-22 02:09:00,32.0,31.8,28.40,NNE,22,3.5,3.5,99,0.12,CLR,,0.13,WeatherDisplay:10.37,2013-03-22 07:09:00,
2013-03-22 02:14:00,32.0,31.8,28.40,NNW,338,2.7,2.7,99,0.12,CLR,,0.13,WeatherDisplay:10.37,2013-03-22 07:14:00,
2013-03-22 02:19:00,32.0,31.8,28.40,NE,45,4.6,4.6,99,0.11,CLR,,0.13,WeatherDisplay:10.37,2013-03-22 07:19:00,
2013-03-22 02:24:00,32.0,31.8,28.40,WNW,292,4.6,4.6,99,0.12,RA,,0.14,WeatherDisplay:10.37,2013-03-22 07:24:00,
2013-03-22 02:29:00,32.0,31.8,28.41,West,270,3.2,3.2,99,0.12,RA,,0.14,WeatherDisplay:10.37,2013-03-22 07:29:00,
2013-03-22 02:34:00,32.0,31.8,28.41,SSW,202,3.7,3.7,99,0.13,RA,,0.16,WeatherDisplay:10.37,2013-03-22 07:34:00,
2013-03-22 02:39:00,32.0,31.8,28.41,NW,315,4.6,4.6,99,0.11,RA,,0.17,WeatherDisplay:10.37,2013-03-22 07:39:00,
2013-03-22 02:44:00,32.0,31.8,28.41,NW,315,3.5,3.5,99,0.09,RA,,0.18,WeatherDisplay:10.37,2013-03-22 07:44:00,
2013-03-22 02:49:00,32.2,32.0,28.41,NW,315,3.5,3.5,99,0.09,RA,,0.20,WeatherDisplay:10.37,2013-03-22 07:49:00,
2013-03-22 02:54:00,32.2,32.0,28.42,East,90,3.5,3.5,99,0.10,RA,,0.23,WeatherDisplay:10.37,2013-03-22 07:54:00,
2013-03-22 02:59:00,32.2,32.0,28.42,North,360,2.7,2.7,99,0.11,RA,,0.24,WeatherDisplay:10.37,2013-03-22 07:59:00,
2013-03-22 03:04:00,32.2,32.0,28.41,North,360,3.5,3.5,99,0.12,RA,,0.25,WeatherDisplay:10.37,2013-03-22 08:04:00,
2013-03-22 03:09:00,32.2,32.0,28.41,North,360,3.5,3.5,99,0.14,RA,,0.27,WeatherDisplay:10.37,2013-03-22 08:09:00,
2013-03-22 03:14:00,32.2,32.0,28.40,WNW,292,3.5,3.5,99,0.14,RA,,0.27,WeatherDisplay:10.37,2013-03-22 08:14:00,
2013-03-22 03:19:00,32.2,32.0,28.40,South,180,2.3,2.3,99,0.15,RA,,0.28,WeatherDisplay:10.37,2013-03-22 08:19:00,
2013-03-22 03:24:00,32.2,32.0,28.41,NNW,338,2.3,2.3,99,0.15,RA,,0.29,WeatherDisplay:10.37,2013-03-22 08:24:00,
2013-03-22 03:29:00,32.4,32.2,28.41,West,270,2.3,2.3,99,0.15,RA,,0.29,WeatherDisplay:10.37,2013-03-22 08:29:00,
2013-03-22 03:34:00,32.4,32.2,28.41,NNE,22,2.3,2.3,99,0.14,RA,,0.30,WeatherDisplay:10.37,2013-03-22 08:34:00,
2013-03-22 03:39:00,32.4,32.2,28.40,WSW,248,2.3,2.3,99,0.13,RA,,0.30,WeatherDisplay:10.37,2013-03-22 08:39:00,
2013-03-22 03:44:00,32.4,32.2,28.40,ESE,112,2.3,2.3,99,0.12,,,0.30,WeatherDisplay:10.37,2013-03-22 08:44:00,
2013-03-22 03:49:00,32.4,32.2,28.40,NW,315,3.5,3.5,99,0.11,RA,,0.31,WeatherDisplay:10.37,2013-03-22 08:49:00,
2013-03-22 03:54:00,32.4,32.2,28.40,NNW,338,2.3,2.3,99,0.09,RA,,0.32,WeatherDisplay:10.37,2013-03-22 08:54:00,
2013-03-22 03:59:00,32.4,32.2,28.40,WSW,248,2.7,2.7,99,0.08,RA,,0.32,WeatherDisplay:10.37,2013-03-22 08:59:00,
2013-03-22 04:04:00,32.4,32.2,28.40,North,360,1.7,1.7,99,0.07,CLR,,0.32,WeatherDisplay:10.37,2013-03-22 09:04:00,
2013-03-22 04:09:00,32.5,32.3,28.40,NE,45,3.5,3.5,99,0.05,CLR,,0.32,WeatherDisplay:10.37,2013-03-22 09:09:00,
2013-03-22 04:14:00,32.5,32.3,28.40,NNW,338,2.7,2.7,99,0.05,CLR,,0.32,WeatherDisplay:10.37,2013-03-22 09:14:00,
2013-03-22 04:19:00,32.5,32.3,28.40,NNE,22,3.7,3.7,99,0.04,CLR,,0.32,WeatherDisplay:10.37,2013-03-22 09:19:00,
2013-03-22 04:24:00,32.5,32.3,28.40,WNW,292,3.7,3.7,99,0.03,CLR,,0.32,WeatherDisplay:10.37,2013-03-22 09:24:00,
2013-03-22 04:29:00,32.7,32.5,28.39,ENE,68,2.7,2.7,99,0.04,RA,,0.33,WeatherDisplay:10.37,2013-03-22 09:29:00,
2013-03-22 04:34:00,32.7,32.5,28.39,NNW,338,2.3,2.3,99,0.03,RA,,0.33,WeatherDisplay:10.37,2013-03-22 09:34:00,
2013-03-22 04:39:00,32.9,32.7,28.39,South,180,2.3,2.3,99,0.03,CLR,,0.33,WeatherDisplay:10.37,2013-03-22 09:39:00,
2013-03-22 04:44:00,32.9,32.7,28.39,NNW,338,4.6,4.6,99,0.03,CLR,,0.33,WeatherDisplay:10.37,2013-03-22 09:44:00,
2013-03-22 04:49:00,32.9,32.7,28.39,ENE,68,2.7,2.7,99,0.02,CLR,,0.33,WeatherDisplay:10.37,2013-03-22 09:49:00,
2013-03-22 04:54:00,32.9,32.7,28.39,NNW,338,1.2,1.2,99,0.01,CLR,,0.33,WeatherDisplay:10.37,2013-03-22 09:54:00,
2013-03-22 04:59:00,32.9,32.7,28.39,SSW,202,1.2,1.4,99,0.01,CLR,,0.33,WeatherDisplay:10.37,2013-03-22 09:59:00,
2013-03-22 05:04:00,33.3,33.0,28.40,NW,315,2.7,2.7,99,0.01,CLR,,0.33,WeatherDisplay:10.37,2013-03-22 10:04:00,
2013-03-22 05:09:00,33.3,33.0,28.40,NW,315,1.2,1.6,99,0.01,CLR,,0.33,WeatherDisplay:10.37,2013-03-22 10:09:00,
2013-03-22 05:14:00,33.3,33.0,28.39,ESE,112,2.7,2.7,99,0.01,CLR,,0.33,WeatherDisplay:10.37,2013-03-22 10:14:00,
2013-03-22 05:19:00,33.3,33.0,28.39,East,90,1.7,1.7,99,0.01,CLR,,0.33,WeatherDisplay:10.37,2013-03-22 10:19:00,
2013-03-22 05:24:00,33.3,33.0,28.39,North,360,4.6,4.6,99,0.01,CLR,,0.33,WeatherDisplay:10.37,2013-03-22 10:24:00,
2013-03-22 05:29:00,33.4,33.1,28.39,WNW,292,1.7,1.7,99,0.00,CLR,,0.33,WeatherDisplay:10.37,2013-03-22 10:29:00,
2013-03-22 05:34:00,33.4,33.1,28.39,North,360,2.3,2.3,99,0.00,CLR,,0.33,WeatherDisplay:10.37,2013-03-22 10:34:00,
2013-03-22 05:39:00,33.4,33.1,28.40,North,360,1.2,1.2,99,0.00,CLR,,0.33,WeatherDisplay:10.37,2013-03-22 10:39:00,
2013-03-22 05:44:00,33.6,33.3,28.40,ESE,112,2.3,2.3,99,0.00,CLR,,0.33,WeatherDisplay:10.37,2013-03-22 10:44:00,
2013-03-22 05:49:00,33.6,33.3,28.41,NNW,338,0.0,0.0,99,0.00,CLR,,0.33,WeatherDisplay:10.37,2013-03-22 10:49:00,
2013-03-22 05:54:00,33.8,33.5,28.41,NE,45,0.0,0.0,99,0.00,CLR,,0.33,WeatherDisplay:10.37,2013-03-22 10:54:00,
2013-03-22 05:59:00,33.8,33.5,28.41,NNE,22,0.0,0.0,99,0.00,CLR,,0.33,WeatherDisplay:10.37,2013-03-22 10:59:00,
2013-03-22 06:04:00,33.8,33.5,28.42,NW,315,0.0,0.0,99,0.00,CLR,,0.33,WeatherDisplay:10.37,2013-03-22 11:04:00,
2013-03-22 06:09:00,33.8,33.5,28.42,SSW,202,0.0,0.0,99,0.00,CLR,,0.33,WeatherDisplay:10.37,2013-03-22 11:09:00,
2013-03-22 06:14:00,33.8,33.5,28.42,NNE,22,0.0,0.0,99,0.01,RA,,0.34,WeatherDisplay:10.37,2013-03-22 11:14:00,
2013-03-22 06:19:00,34.0,33.7,28.42,NNW,338,2.3,2.3,99,0.01,RA,,0.34,WeatherDisplay:10.37,2013-03-22 11:19:00,
2013-03-22 06:24:00,34.0,33.7,28.43,NNW,338,2.3,2.3,99,0.01,CLR,,0.34,WeatherDisplay:10.37,2013-03-22 11:24:00,
2013-03-22 06:29:00,34.0,33.7,28.43,WNW,292,1.2,0.0,99,0.01,CLR,,0.34,WeatherDisplay:10.37,2013-03-22 11:29:00,
2013-03-22 06:34:00,34.0,33.7,28.43,North,360,1.7,1.7,99,0.01,CLR,,0.34,WeatherDisplay:10.37,2013-03-22 11:34:00,
2013-03-22 06:39:00,34.0,33.7,28.44,NNW,338,3.5,3.5,99,0.01,CLR,,0.34,WeatherDisplay:10.37,2013-03-22 11:39:00,
2013-03-22 06:44:00,34.0,33.7,28.44,North,360,1.7,1.7,99,0.01,CLR,,0.34,WeatherDisplay:10.37,2013-03-22 11:44:00,
2013-03-22 06:49:00,34.2,33.9,28.43,NNW,338,1.2,0.0,99,0.01,CLR,,0.34,WeatherDisplay:10.37,2013-03-22 11:49:00,
2013-03-22 06:54:00,34.2,33.9,28.43,NE,45,2.3,2.3,99,0.01,CLR,,0.34,WeatherDisplay:10.37,2013-03-22 11:54:00,
2013-03-22 06:59:00,34.2,33.9,28.43,North,360,2.7,2.7,99,0.01,CLR,,0.34,WeatherDisplay:10.37,2013-03-22 11:59:00,
2013-03-22 07:04:00,34.2,33.9,28.43,NNW,338,5.8,5.8,99,0.01,CLR,,0.34,WeatherDisplay:10.37,2013-03-22 12:04:00,
2013-03-22 07:09:00,34.2,33.9,28.43,NW,315,3.5,3.5,99,0.01,CLR,,0.34,WeatherDisplay:10.37,2013-03-22 12:09:00,
2013-03-22 07:14:00,34.2,33.9,28.44,NNW,338,2.7,2.7,99,0.00,CLR,,0.34,WeatherDisplay:10.37,2013-03-22 12:14:00,
2013-03-22 07:19:00,34.2,33.9,28.44,WNW,292,2.2,2.2,99,0.00,CLR,,0.34,WeatherDisplay:10.37,2013-03-22 12:19:00,
2013-03-22 07:24:00,34.2,33.9,28.44,NE,45,3.2,3.2,99,0.00,CLR,,0.34,WeatherDisplay:10.37,2013-03-22 12:24:00,
2013-03-22 07:29:00,34.2,33.9,28.44,NNE,22,3.5,3.5,99,0.00,CLR,,0.34,WeatherDisplay:10.37,2013-03-22 12:29:00,
2013-03-22 07:34:00,34.2,33.9,28.44,NNW,338,2.3,2.3,99,0.00,CLR,,0.34,WeatherDisplay:10.37,2013-03-22 12:34:00,
2013-03-22 07:39:00,34.2,33.9,28.44,NW,315,3.5,3.5,99,0.00,CLR,,0.34,WeatherDisplay:10.37,2013-03-22 12:39:00,
2013-03-22 07:44:00,34.2,33.9,28.44,North,360,2.7,2.7,99,0.00,CLR,,0.34,WeatherDisplay:10.37,2013-03-22 12:44:00,
2013-03-22 07:49:00,34.2,33.9,28.44,NW,315,3.5,3.5,99,0.00,CLR,,0.34,WeatherDisplay:10.37,2013-03-22 12:49:00,
2013-03-22 07:54:00,34.3,34.0,28.44,NNW,338,2.3,2.3,99,0.00,CLR,,0.34,WeatherDisplay:10.37,2013-03-22 12:54:00,
2013-03-22 07:59:00,34.3,34.0,28.44,North,360,2.3,2.3,99,0.00,CLR,,0.34,WeatherDisplay:10.37,2013-03-22 12:59:00,
2013-03-22 08:04:00,34.3,34.0,28.43,NW,315,2.7,2.8,99,0.00,CLR,,0.34,WeatherDisplay:10.37,2013-03-22 13:04:00,
2013-03-22 08:09:00,34.3,34.0,28.43,ENE,68,2.3,2.3,99,0.00,CLR,,0.34,WeatherDisplay:10.37,2013-03-22 13:09:00,
2013-03-22 08:14:00,34.3,34.0,28.43,NW,315,2.3,2.3,99,0.00,CLR,,0.34,WeatherDisplay:10.37,2013-03-22 13:14:00,
2013-03-22 08:19:00,34.5,34.2,28.43,NNE,22,2.3,2.3,99,0.00,CLR,,0.34,WeatherDisplay:10.37,2013-03-22 13:19:00,
2013-03-22 08:24:00,34.7,34.4,28.43,NNW,338,2.3,2.3,99,0.00,CLR,,0.34,WeatherDisplay:10.37,2013-03-22 13:24:00,
2013-03-22 08:29:00,34.7,34.4,28.44,NNW,338,2.3,2.3,99,0.00,CLR,,0.34,WeatherDisplay:10.37,2013-03-22 13:29:00,
2013-03-22 08:34:00,34.9,34.6,28.44,North,360,4.2,4.2,99,0.00,CLR,,0.34,WeatherDisplay:10.37,2013-03-22 13:34:00,
2013-03-22 08:39:00,34.9,34.6,28.44,NE,45,4.2,4.2,99,0.00,CLR,,0.34,WeatherDisplay:10.37,2013-03-22 13:39:00,
2013-03-22 08:44:00,35.1,34.8,28.44,WSW,248,3.5,3.5,99,0.00,CLR,,0.34,WeatherDisplay:10.37,2013-03-22 13:44:00,
2013-03-22 08:49:00,35.2,34.9,28.44,North,360,2.3,2.3,99,0.00,CLR,,0.34,WeatherDisplay:10.37,2013-03-22 13:49:00,
2013-03-22 08:54:00,35.6,35.3,28.44,NNE,22,3.2,3.2,99,0.00,CLR,,0.34,WeatherDisplay:10.37,2013-03-22 13:54:00,
2013-03-22 08:59:00,35.6,35.3,28.44,NNE,22,2.2,2.2,99,0.00,CLR,,0.34,WeatherDisplay:10.37,2013-03-22 13:59:00,
2013-03-22 09:04:00,35.8,35.5,28.45,NE,45,3.5,3.5,99,0.00,CLR,,0.34,WeatherDisplay:10.37,2013-03-22 14:04:00,
2013-03-22 09:09:00,36.0,35.7,28.45,NNE,22,2.7,2.7,99,0.00,CLR,,0.34,WeatherDisplay:10.37,2013-03-22 14:09:00,
2013-03-22 09:14:00,36.0,35.7,28.45,West,270,3.5,3.5,99,0.00,CLR,,0.34,WeatherDisplay:10.37,2013-03-22 14:14:00,
2013-03-22 09:19:00,36.1,35.8,28.45,ESE,112,2.7,2.7,99,0.00,CLR,,0.34,WeatherDisplay:10.37,2013-03-22 14:19:00,
2013-03-22 09:25:00,36.5,36.2,28.45,NNE,22,3.5,3.5,99,0.00,CLR,,0.34,WeatherDisplay:10.37,2013-03-22 14:25:00,
2013-03-22 09:30:00,36.5,36.2,28.45,NNW,338,4.7,4.7,99,0.00,CLR,,0.34,WeatherDisplay:10.37,2013-03-22 14:30:00,
2013-03-22 09:35:00,36.5,36.2,28.45,NNW,338,2.3,2.3,99,0.00,CLR,,0.34,WeatherDisplay:10.37,2013-03-22 14:35:00,
2013-03-22 09:40:00,36.7,36.4,28.45,NNE,22,2.3,2.3,99,0.00,CLR,,0.34,WeatherDisplay:10.37,2013-03-22 14:40:00,
2013-03-22 09:45:00,36.9,36.6,28.45,North,360,3.5,3.5,99,0.00,CLR,,0.34,WeatherDisplay:10.37,2013-03-22 14:45:00,
2013-03-22 09:50:00,36.7,36.4,28.45,North,360,3.5,3.5,99,0.00,CLR,,0.34,WeatherDisplay:10.37,2013-03-22 14:50:00,
2013-03-22 09:55:00,36.9,36.6,28.45,North,360,3.5,3.5,99,0.00,CLR,,0.34,WeatherDisplay:10.37,2013-03-22 14:55:00,
2013-03-22 10:00:00,37.0,36.7,28.45,ENE,68,4.6,4.6,99,0.00,CLR,,0.34,WeatherDisplay:10.37,2013-03-22 15:00:00,
2013-03-22 10:05:00,37.0,36.7,28.44,NNW,338,3.5,3.5,99,0.00,CLR,,0.34,WeatherDisplay:10.37,2013-03-22 15:05:00,
2013-03-22 10:10:00,37.0,36.7,28.44,WNW,292,4.6,4.6,99,0.00,CLR,,0.34,WeatherDisplay:10.37,2013-03-22 15:10:00,
2013-03-22 10:15:00,37.0,36.7,28.44,NNW,338,3.5,3.5,99,0.00,CLR,,0.34,WeatherDisplay:10.37,2013-03-22 15:15:00,
2013-03-22 10:20:00,37.2,36.9,28.44,NNW,338,3.7,3.7,99,0.00,CLR,,0.34,WeatherDisplay:10.37,2013-03-22 15:20:00,
2013-03-22 10:25:00,37.2,36.9,28.45,WNW,292,3.2,3.2,99,0.00,CLR,,0.34,WeatherDisplay:10.37,2013-03-22 15:25:00,
2013-03-22 10:30:00,37.6,37.3,28.45,NW,315,2.3,2.5,99,0.00,CLR,,0.34,WeatherDisplay:10.37,2013-03-22 15:30:00,
2013-03-22 10:35:00,37.8,37.5,28.45,NNE,22,3.2,3.2,99,0.00,CLR,,0.34,WeatherDisplay:10.37,2013-03-22 15:35:00,
2013-03-22 10:40:00,37.6,37.3,28.45,North,360,2.3,2.3,99,0.00,CLR,,0.34,WeatherDisplay:10.37,2013-03-22 15:40:00,
2013-03-22 10:45:00,37.6,37.3,28.45,NE,45,1.2,1.2,99,0.00,CLR,,0.34,WeatherDisplay:10.37,2013-03-22 15:45:00,
2013-03-22 10:50:00,37.9,37.6,28.45,ENE,68,2.7,2.7,99,0.00,CLR,,0.34,WeatherDisplay:10.37,2013-03-22 15:50:00,
2013-03-22 10:55:00,38.3,38.0,28.45,South,180,2.3,2.3,99,0.00,CLR,,0.34,WeatherDisplay:10.37,2013-03-22 15:55:00,
2013-03-22 11:00:00,38.5,38.2,28.45,North,360,3.2,3.2,99,0.00,CLR,,0.34,WeatherDisplay:10.37,2013-03-22 16:00:00,
2013-03-22 11:05:00,38.5,38.2,28.45,ESE,112,2.3,2.3,99,0.00,CLR,,0.34,WeatherDisplay:10.37,2013-03-22 16:05:00,
2013-03-22 11:10:00,38.5,38.2,28.45,West,270,3.5,3.5,99,0.00,CLR,,0.34,WeatherDisplay:10.37,2013-03-22 16:10:00,
2013-03-22 11:15:00,37.9,37.6,28.45,NE,45,4.6,4.6,99,0.00,CLR,,0.34,WeatherDisplay:10.37,2013-03-22 16:15:00,
2013-03-22 11:20:00,38.3,38.0,28.45,WSW,248,4.6,4.6,99,0.00,CLR,,0.34,WeatherDisplay:10.37,2013-03-22 16:20:00,
2013-03-22 11:25:00,38.3,38.0,28.45,WNW,292,4.2,4.2,99,0.00,CLR,,0.34,WeatherDisplay:10.37,2013-03-22 16:25:00,
2013-03-22 11:30:00,38.3,38.0,28.45,SE,135,4.7,4.7,99,0.00,CLR,,0.34,WeatherDisplay:10.37,2013-03-22 16:30:00,
2013-03-22 11:35:00,38.3,38.0,28.45,NNW,338,2.7,2.7,99,0.00,CLR,,0.34,WeatherDisplay:10.37,2013-03-22 16:35:00,
2013-03-22 11:40:00,38.3,38.0,28.45,WSW,248,3.5,3.5,99,0.00,CLR,,0.34,WeatherDisplay:10.37,2013-03-22 16:40:00,
2013-03-22 11:45:00,38.5,38.2,28.45,North,360,3.5,3.5,99,0.00,CLR,,0.34,WeatherDisplay:10.37,2013-03-22 16:45:00,
2013-03-22 11:50:00,38.5,38.2,28.45,West,270,4.2,4.2,99,0.00,CLR,,0.34,WeatherDisplay:10.37,2013-03-22 16:50:00,
2013-03-22 11:55:00,38.5,38.2,28.45,SSE,158,2.7,2.8,99,0.00,CLR,,0.34,WeatherDisplay:10.37,2013-03-22 16:55:00,
2013-03-22 12:00:00,38.5,38.2,28.45,North,360,5.8,5.8,99,0.00,CLR,,0.34,WeatherDisplay:10.37,2013-03-22 17:00:00,
2013-03-22 12:05:00,39.0,38.7,28.45,NW,315,5.3,5.3,99,0.00,CLR,,0.34,WeatherDisplay:10.37,2013-03-22 17:05:00,
2013-03-22 12:10:00,39.4,39.1,28.45,North,360,3.5,3.5,99,0.00,CLR,,0.34,WeatherDisplay:10.37,2013-03-22 17:10:00,
2013-03-22 12:15:00,39.6,39.3,28.45,North,360,2.3,2.3,99,0.00,CLR,,0.34,WeatherDisplay:10.37,2013-03-22 17:15:00,
2013-03-22 12:20:00,39.6,39.3,28.45,NNW,338,4.6,4.6,99,0.00,CLR,,0.34,WeatherDisplay:10.37,2013-03-22 17:20:00,
2013-03-22 12:25:00,39.9,39.6,28.44,NNE,22,2.3,2.3,99,0.00,CLR,,0.34,WeatherDisplay:10.37,2013-03-22 17:25:00,
2013-03-22 12:30:00,39.7,39.2,28.44,NNW,338,3.5,3.5,98,0.00,CLR,,0.34,WeatherDisplay:10.37,2013-03-22 17:30:00,
2013-03-22 12:35:00,39.9,39.4,28.44,North,360,3.7,3.7,98,0.00,CLR,,0.34,WeatherDisplay:10.37,2013-03-22 17:35:00,
2013-03-22 12:40:00,39.6,39.1,28.44,West,270,4.6,4.6,98,0.00,CLR,,0.34,WeatherDisplay:10.37,2013-03-22 17:40:00,
2013-03-22 12:45:00,39.7,39.2,28.44,ESE,112,2.3,2.3,98,0.00,CLR,,0.34,WeatherDisplay:10.37,2013-03-22 17:45:00,
2013-03-22 12:50:00,40.1,39.8,28.44,NE,45,2.7,2.7,99,0.00,CLR,,0.34,WeatherDisplay:10.37,2013-03-22 17:50:00,
2013-03-22 12:55:00,40.1,39.6,28.44,NNW,338,5.3,5.3,98,0.00,CLR,,0.34,WeatherDisplay:10.37,2013-03-22 17:55:00,
2013-03-22 13:00:00,39.9,39.4,28.44,ENE,68,3.5,3.5,98,0.00,CLR,,0.34,WeatherDisplay:10.37,2013-03-22 18:00:00,
2013-03-22 13:05:00,40.3,39.5,28.44,NNE,22,3.7,3.7,97,0.00,CLR,,0.34,WeatherDisplay:10.37,2013-03-22 18:05:00,
2013-03-22 13:10:00,39.9,39.4,28.44,WNW,292,3.5,3.5,98,0.00,CLR,,0.34,WeatherDisplay:10.37,2013-03-22 18:10:00,
2013-03-22 13:15:00,40.3,39.8,28.45,NNW,338,3.5,3.5,98,0.00,CLR,,0.34,WeatherDisplay:10.37,2013-03-22 18:15:00,
2013-03-22 13:20:00,39.7,39.2,28.45,NNW,338,4.6,4.6,98,0.00,CLR,,0.34,WeatherDisplay:10.37,2013-03-22 18:20:00,
2013-03-22 13:25:00,39.4,38.9,28.45,WNW,292,4.6,4.6,98,0.00,CLR,,0.34,WeatherDisplay:10.37,2013-03-22 18:25:00,
2013-03-22 13:30:00,39.4,38.9,28.45,NNE,22,3.5,3.5,98,0.00,CLR,,0.34,WeatherDisplay:10.37,2013-03-22 18:30:00,
2013-03-22 13:35:00,39.4,39.1,28.45,NNW,338,3.5,3.5,99,0.00,CLR,,0.34,WeatherDisplay:10.37,2013-03-22 18:35:00,
2013-03-22 13:40:00,39.6,39.1,28.45,NE,45,3.7,3.7,98,0.00,CLR,,0.34,WeatherDisplay:10.37,2013-03-22 18:40:00,
2013-03-22 13:45:00,39.7,39.4,28.45,NNE,22,2.7,2.7,99,0.00,CLR,,0.34,WeatherDisplay:10.37,2013-03-22 18:45:00,
2013-03-22 13:50:00,39.6,39.1,28.46,North,360,4.6,4.6,98,0.00,CLR,,0.34,WeatherDisplay:10.37,2013-03-22 18:50:00,
2013-03-22 13:55:00,39.4,39.1,28.46,North,360,3.5,3.5,99,0.00,CLR,,0.34,WeatherDisplay:10.37,2013-03-22 18:55:00,
2013-03-22 14:00:00,39.6,39.3,28.46,NNW,338,2.3,2.3,99,0.00,CLR,,0.34,WeatherDisplay:10.37,2013-03-22 19:00:00,
2013-03-22 14:05:00,39.7,39.4,28.45,North,360,4.6,4.6,99,0.00,CLR,,0.34,WeatherDisplay:10.37,2013-03-22 19:05:00,
2013-03-22 14:10:00,39.7,39.4,28.45,NNW,338,4.7,4.7,99,0.00,CLR,,0.34,WeatherDisplay:10.37,2013-03-22 19:10:00,
2013-03-22 14:15:00,39.6,39.3,28.45,NNE,22,3.5,3.5,99,0.00,CLR,,0.34,WeatherDisplay:10.37,2013-03-22 19:15:00,
2013-03-22 14:20:00,39.6,39.3,28.45,NNE,22,3.7,3.7,99,0.00,CLR,,0.34,WeatherDisplay:10.37,2013-03-22 19:20:00,
2013-03-22 14:25:00,39.7,39.2,28.44,North,360,3.5,3.5,98,0.00,CLR,,0.34,WeatherDisplay:10.37,2013-03-22 19:25:00,
2013-03-22 14:30:00,39.9,39.4,28.44,NNW,338,3.2,3.2,98,0.00,CLR,,0.34,WeatherDisplay:10.37,2013-03-22 19:30:00,
2013-03-22 14:35:00,39.7,39.2,28.44,NNE,22,2.3,2.3,98,0.00,CLR,,0.34,WeatherDisplay:10.37,2013-03-22 19:35:00,
2013-03-22 14:40:00,40.1,39.6,28.44,North,359,2.0,3.0,98,0.00,CLR,,0.34,WeatherDisplay:10.37,2013-03-22 19:40:00,
2013-03-22 14:45:00,40.3,39.5,28.44,North,350,2.0,3.0,97,0.00,CLR,,0.34,WeatherDisplay:10.37,2013-03-22 19:45:00,
2013-03-22 14:50:00,39.6,39.1,28.44,NNW,340,5.0,6.0,98,0.00,CLR,,0.34,WeatherDisplay:10.37,2013-03-22 19:50:00,
2013-03-22 14:55:00,39.2,38.7,28.44,NNW,338,5.0,6.0,98,0.00,CLR,,0.34,WeatherDisplay:10.37,2013-03-22 19:55:00,
2013-03-22 15:00:00,39.0,38.7,28.44,North,349,3.0,6.0,99,0.00,CLR,,0.34,WeatherDisplay:10.37,2013-03-22 20:00:00,
2013-03-22 15:05:00,38.8,38.5,28.44,North,358,5.0,6.0,99,0.00,CLR,,0.34,WeatherDisplay:10.37,2013-03-22 20:05:00,
2013-03-22 15:10:00,38.7,38.5,28.44,NNW,342,3.0,6.0,99,0.00,CLR,,0.34,WeatherDisplay:10.37,2013-03-22 20:10:00,
2013-03-22 15:15:00,39.0,38.7,28.44,NNW,347,5.0,6.0,99,0.00,CLR,,0.34,WeatherDisplay:10.37,2013-03-22 20:15:00,
2013-03-22 15:20:00,38.8,38.5,28.44,North,2,5.0,6.0,99,0.00,CLR,,0.34,WeatherDisplay:10.37,2013-03-22 20:20:00,
2013-03-22 15:25:00,38.8,38.5,28.44,North,354,3.0,5.0,99,0.00,CLR,,0.34,WeatherDisplay:10.37,2013-03-22 20:25:00,
2013-03-22 15:30:00,39.2,38.9,28.44,North,349,3.0,5.0,99,0.00,CLR,,0.34,WeatherDisplay:10.37,2013-03-22 20:30:00,
2013-03-22 15:35:00,39.0,38.7,28.44,NNW,340,3.0,5.0,99,0.00,CLR,,0.34,WeatherDisplay:10.37,2013-03-22 20:35:00,
2013-03-22 15:40:00,38.7,38.4,28.44,North,349,3.0,5.0,99,0.00,CLR,,0.34,WeatherDisplay:10.37,2013-03-22 20:40:00,
2013-03-22 15:45:00,38.5,38.2,28.44,North,4,3.0,5.0,99,0.00,CLR,,0.34,WeatherDisplay:10.37,2013-03-22 20:45:00,
2013-03-22 15:50:00,38.8,38.5,28.44,North,353,3.0,6.0,99,0.00,CLR,,0.34,WeatherDisplay:10.37,2013-03-22 20:50:00,
2013-03-22 15:55:00,38.7,38.4,28.44,North,351,3.0,5.0,99,0.00,CLR,,0.34,WeatherDisplay:10.37,2013-03-22 20:55:00,
2013-03-22 16:00:00,38.7,38.4,28.44,North,4,5.0,6.0,99,0.00,CLR,,0.34,WeatherDisplay:10.37,2013-03-22 21:00:00,
2013-03-22 16:05:00,38.5,38.2,28.43,North,2,3.0,5.0,99,0.00,CLR,,0.34,WeatherDisplay:10.37,2013-03-22 21:05:00,
2013-03-22 16:10:00,38.7,38.4,28.43,NNW,346,3.0,5.0,99,0.00,CLR,,0.34,WeatherDisplay:10.37,2013-03-22 21:10:00,
2013-03-22 16:15:00,38.7,38.5,28.44,NNW,340,2.0,4.0,99,0.00,CLR,,0.34,WeatherDisplay:10.37,2013-03-22 21:15:00,
2013-03-22 16:20:00,38.7,38.4,28.44,NNW,344,3.0,5.0,99,0.00,CLR,,0.34,WeatherDisplay:10.37,2013-03-22 21:20:00,
2013-03-22 16:25:00,38.8,38.5,28.44,NNW,347,2.0,4.0,99,0.00,CLR,,0.34,WeatherDisplay:10.37,2013-03-22 21:25:00,
2013-03-22 16:30:00,39.0,38.7,28.44,NNW,338,3.0,5.0,99,0.00,CLR,,0.34,WeatherDisplay:10.37,2013-03-22 21:30:00,
2013-03-22 16:35:00,38.8,38.5,28.44,NNW,335,3.0,4.0,99,0.00,CLR,,0.34,WeatherDisplay:10.37,2013-03-22 21:35:00,
2013-03-22 16:40:00,38.9,38.6,28.44,North,354,2.0,4.0,99,0.00,CLR,,0.34,WeatherDisplay:10.37,2013-03-22 21:40:00,
2013-03-22 16:45:00,39.0,38.7,28.44,North,6,2.0,5.0,99,0.00,CLR,,0.34,WeatherDisplay:10.37,2013-03-22 21:45:00,
2013-03-22 16:50:00,39.0,38.7,28.44,North,357,3.0,5.0,99,0.00,CLR,,0.34,WeatherDisplay:10.37,2013-03-22 21:50:00,
2013-03-22 16:55:00,39.1,38.9,28.44,North,352,3.0,5.0,99,0.00,CLR,,0.34,WeatherDisplay:10.37,2013-03-22 21:55:00,
2013-03-22 17:00:00,39.0,38.7,28.44,North,5,2.0,5.0,99,0.00,CLR,,0.34,WeatherDisplay:10.37,2013-03-22 22:00:00,
2013-03-22 17:05:00,39.3,39.1,28.44,North,355,1.0,3.0,99,0.00,CLR,,0.34,WeatherDisplay:10.37,2013-03-22 22:05:00,
2013-03-22 17:10:00,39.4,39.1,28.44,NNW,345,3.0,6.0,99,0.00,CLR,,0.34,WeatherDisplay:10.37,2013-03-22 22:10:00,
2013-03-22 17:15:00,38.9,38.6,28.44,North,351,3.0,5.0,99,0.00,CLR,,0.34,WeatherDisplay:10.37,2013-03-22 22:15:00,
2013-03-22 17:20:00,39.0,38.7,28.44,NNW,337,3.0,5.0,99,0.00,CLR,,0.34,WeatherDisplay:10.37,2013-03-22 22:20:00,
2013-03-22 17:25:00,39.0,38.7,28.44,North,351,2.0,4.0,99,0.00,CLR,,0.34,WeatherDisplay:10.37,2013-03-22 22:25:00,
2013-03-22 17:30:00,39.0,38.7,28.44,NNE,22,3.7,3.7,99,0.00,CLR,,0.34,WeatherDisplay:10.37,2013-03-22 22:30:00,
2013-03-22 17:35:00,39.0,38.7,28.44,West,270,4.6,4.6,99,0.00,CLR,,0.34,WeatherDisplay:10.37,2013-03-22 22:35:00,
2013-03-22 17:40:00,39.0,38.7,28.44,WNW,292,3.2,3.2,99,0.00,CLR,,0.34,WeatherDisplay:10.37,2013-03-22 22:40:00,
2013-03-22 17:45:00,39.0,38.7,28.44,NNE,22,4.6,4.6,99,0.00,CLR,,0.34,WeatherDisplay:10.37,2013-03-22 22:45:00,
2013-03-22 17:50:00,39.0,38.7,28.44,WNW,292,3.5,3.5,99,0.00,CLR,,0.34,WeatherDisplay:10.37,2013-03-22 22:50:00,
2013-03-22 17:55:00,39.0,38.7,28.44,North,360,1.1,1.1,99,0.00,CLR,,0.34,WeatherDisplay:10.37,2013-03-22 22:55:00,
2013-03-22 18:00:00,39.0,38.7,28.44,NNW,338,2.2,2.2,99,0.00,CLR,,0.34,WeatherDisplay:10.37,2013-03-22 23:00:00,
2013-03-22 18:05:00,39.0,38.7,28.44,NNW,334,1.0,2.0,99,0.00,CLR,,0.34,WeatherDisplay:10.37,2013-03-22 23:05:00,
2013-03-22 18:10:00,38.8,38.5,28.44,North,360,3.5,3.5,99,0.00,CLR,,0.34,WeatherDisplay:10.37,2013-03-22 23:10:00,
2013-03-22 18:15:00,38.8,38.5,28.44,North,360,2.3,2.3,99,0.00,CLR,,0.34,WeatherDisplay:10.37,2013-03-22 23:15:00,
2013-03-22 18:20:00,38.8,38.5,28.44,North,360,3.5,3.5,99,0.00,CLR,,0.34,WeatherDisplay:10.37,2013-03-22 23:20:00,
2013-03-22 18:25:00,38.7,38.4,28.44,North,360,2.7,2.7,99,0.00,CLR,,0.34,WeatherDisplay:10.37,2013-03-22 23:25:00,
2013-03-22 18:30:00,38.7,38.4,28.44,NNW,338,3.7,3.7,99,0.00,CLR,,0.34,WeatherDisplay:10.37,2013-03-22 23:30:00,
2013-03-22 18:35:00,38.7,38.4,28.44,NW,315,2.7,2.7,99,0.00,CLR,,0.34,WeatherDisplay:10.37,2013-03-22 23:35:00,
2013-03-22 18:40:00,38.7,38.4,28.45,North,8,1.0,3.0,99,0.00,CLR,,0.34,WeatherDisplay:10.37,2013-03-22 23:40:00,
2013-03-22 18:45:00,38.5,38.2,28.45,NNE,22,1.2,0.0,99,0.00,CLR,,0.34,WeatherDisplay:10.37,2013-03-22 23:45:00,
2013-03-22 18:50:00,38.5,38.2,28.45,WSW,237,1.0,2.0,99,0.00,CLR,,0.34,WeatherDisplay:10.37,2013-03-22 23:50:00,
2013-03-22 18:55:00,38.5,38.2,28.45,West,274,2.0,3.0,99,0.00,CLR,,0.34,WeatherDisplay:10.37,2013-03-22 23:55:00,
2013-03-22 19:00:00,38.5,38.2,28.45,NNW,341,0.0,2.0,99,0.00,CLR,,0.34,WeatherDisplay:10.37,2013-03-23 00:00:00,
2013-03-22 19:05:00,38.4,38.2,28.46,North,5,2.0,3.0,99,0.00,CLR,,0.34,WeatherDisplay:10.37,2013-03-23 00:05:00,
2013-03-22 19:10:00,38.2,38.0,28.46,NNE,19,2.0,3.0,99,0.00,CLR,,0.34,WeatherDisplay:10.37,2013-03-23 00:10:00,
2013-03-22 19:15:00,38.1,37.8,28.45,NNW,332,2.0,2.0,99,0.00,CLR,,0.34,WeatherDisplay:10.37,2013-03-23 00:15:00,
2013-03-22 19:20:00,38.1,37.8,28.45,NNW,338,1.0,3.0,99,0.00,CLR,,0.34,WeatherDisplay:10.37,2013-03-23 00:20:00,
2013-03-22 19:25:00,38.1,37.8,28.46,NW,326,0.0,0.0,99,0.00,CLR,,0.34,WeatherDisplay:10.37,2013-03-23 00:25:00,
2013-03-22 19:30:00,37.9,37.6,28.46,North,5,2.0,2.0,99,0.00,CLR,,0.34,WeatherDisplay:10.37,2013-03-23 00:30:00,
2013-03-22 19:35:00,37.9,37.6,28.46,North,11,1.0,2.0,99,0.00,CLR,,0.34,WeatherDisplay:10.37,2013-03-23 00:35:00,
2013-03-22 19:40:00,37.9,37.6,28.46,North,359,1.0,3.0,99,0.00,CLR,,0.34,WeatherDisplay:10.37,2013-03-23 00:40:00,
2013-03-22 19:45:00,37.9,37.6,28.46,NNW,345,1.0,2.0,99,0.00,CLR,,0.34,WeatherDisplay:10.37,2013-03-23 00:45:00,
2013-03-22 19:50:00,37.8,37.5,28.46,North,357,2.0,3.0,99,0.00,CLR,,0.34,WeatherDisplay:10.37,2013-03-23 00:50:00,
2013-03-22 19:55:00,37.8,37.5,28.46,North,356,2.0,4.0,99,0.00,CLR,,0.34,WeatherDisplay:10.37,2013-03-23 00:55:00,
2013-03-22 20:00:00,37.5,37.2,28.46,North,9,5.0,6.0,99,0.00,CLR,,0.34,WeatherDisplay:10.37,2013-03-23 01:00:00,
2013-03-22 20:05:00,37.3,37.0,28.45,NNE,23,5.0,6.0,99,0.00,CLR,,0.34,WeatherDisplay:10.37,2013-03-23 01:05:00,
2013-03-22 20:10:00,37.0,36.7,28.45,North,359,6.0,6.0,99,0.00,CLR,,0.34,WeatherDisplay:10.37,2013-03-23 01:10:00,
2013-03-22 20:15:00,37.0,36.7,28.44,North,350,5.0,6.0,99,0.00,CLR,,0.34,WeatherDisplay:10.37,2013-03-23 01:15:00,
2013-03-22 20:20:00,37.0,36.7,28.44,North,350,3.0,5.0,99,0.00,CLR,,0.34,WeatherDisplay:10.37,2013-03-23 01:20:00,
2013-03-22 20:25:00,36.9,36.6,28.44,North,350,3.0,6.0,99,0.00,CLR,,0.34,WeatherDisplay:10.37,2013-03-23 01:25:00,
2013-03-22 20:30:00,36.7,36.4,28.44,NNW,344,5.0,5.0,99,0.00,CLR,,0.34,WeatherDisplay:10.37,2013-03-23 01:30:00,
2013-03-22 20:35:00,36.7,36.4,28.44,NNW,338,5.0,6.0,99,0.00,CLR,,0.34,WeatherDisplay:10.37,2013-03-23 01:35:00,
2013-03-22 20:40:00,36.5,36.2,28.44,NNW,334,3.0,5.0,99,0.00,CLR,,0.34,WeatherDisplay:10.37,2013-03-23 01:40:00,
2013-03-22 20:45:00,36.5,36.2,28.44,NNW,348,5.0,6.0,99,0.00,CLR,,0.34,WeatherDisplay:10.37,2013-03-23 01:45:00,
2013-03-22 20:50:00,36.5,36.2,28.45,North,360,3.0,5.0,99,0.00,CLR,,0.34,WeatherDisplay:10.37,2013-03-23 01:50:00,
2013-03-22 20:55:00,36.5,36.2,28.45,North,350,2.0,3.0,99,0.00,CLR,,0.34,WeatherDisplay:10.37,2013-03-23 01:55:00,
2013-03-22 21:00:00,36.5,36.2,28.45,North,350,2.0,5.0,99,0.00,CLR,,0.34,WeatherDisplay:10.37,2013-03-23 02:00:00,
2013-03-22 21:05:00,36.5,36.2,28.45,NNW,347,2.0,3.0,99,0.00,CLR,,0.34,WeatherDisplay:10.37,2013-03-23 02:05:00,
2013-03-22 21:10:00,36.5,36.2,28.45,North,352,2.0,4.0,99,0.00,CLR,,0.34,WeatherDisplay:10.37,2013-03-23 02:10:00,
2013-03-22 21:15:00,36.3,36.0,28.45,North,7,3.0,5.0,99,0.00,CLR,,0.34,WeatherDisplay:10.37,2013-03-23 02:15:00,
2013-03-22 21:20:00,36.3,36.0,28.45,North,2,2.0,4.0,99,0.00,CLR,,0.34,WeatherDisplay:10.37,2013-03-23 02:20:00,
2013-03-22 21:25:00,36.3,36.0,28.45,North,11,2.0,5.0,99,0.00,CLR,,0.34,WeatherDisplay:10.37,2013-03-23 02:25:00,
2013-03-22 21:30:00,36.3,36.0,28.46,North,2,5.0,5.0,99,0.00,CLR,,0.34,WeatherDisplay:10.37,2013-03-23 02:30:00,
2013-03-22 21:35:00,36.3,36.0,28.46,NNW,342,5.0,6.0,99,0.00,CLR,,0.34,WeatherDisplay:10.37,2013-03-23 02:35:00,
2013-03-22 21:40:00,36.1,35.8,28.47,NNW,339,5.0,6.0,99,0.00,CLR,,0.34,WeatherDisplay:10.37,2013-03-23 02:40:00,
2013-03-22 21:45:00,36.1,35.8,28.47,NNW,346,5.0,6.0,99,0.00,CLR,,0.34,WeatherDisplay:10.37,2013-03-23 02:45:00,
2013-03-22 21:50:00,36.0,35.7,28.46,NNW,347,6.0,6.0,99,0.00,CLR,,0.34,WeatherDisplay:10.37,2013-03-23 02:50:00,
2013-03-22 21:55:00,35.8,35.5,28.46,North,3,2.0,6.0,99,0.00,CLR,,0.34,WeatherDisplay:10.37,2013-03-23 02:55:00,
2013-03-22 22:00:00,35.8,35.5,28.46,NW,315,3.5,3.5,99,0.00,CLR,,0.34,WeatherDisplay:10.37,2013-03-23 03:00:00,
2013-03-22 22:05:00,35.8,35.5,28.48,North,360,4.6,4.6,99,0.00,CLR,,0.34,WeatherDisplay:10.37,2013-03-23 03:05:00,
2013-03-22 22:10:00,35.8,35.5,28.48,NNE,22,2.7,2.7,99,0.00,CLR,,0.34,WeatherDisplay:10.37,2013-03-23 03:10:00,
2013-03-22 22:15:00,35.8,35.5,28.48,NNE,22,2.3,2.3,99,0.00,CLR,,0.34,WeatherDisplay:10.37,2013-03-23 03:15:00,
2013-03-22 22:20:00,35.8,35.5,28.48,NNW,338,1.7,1.7,99,0.00,CLR,,0.34,WeatherDisplay:10.37,2013-03-23 03:20:00,
2013-03-22 22:25:00,35.8,35.5,28.48,WNW,292,4.6,4.6,99,0.00,CLR,,0.34,WeatherDisplay:10.37,2013-03-23 03:25:00,
2013-03-22 22:30:00,35.8,35.5,28.48,West,270,2.7,2.7,99,0.00,CLR,,0.34,WeatherDisplay:10.37,2013-03-23 03:30:00,
2013-03-22 22:35:00,35.8,35.5,28.48,NNE,22,2.3,2.3,99,0.00,CLR,,0.34,WeatherDisplay:10.37,2013-03-23 03:35:00,
2013-03-22 22:40:00,35.8,35.5,28.49,SE,135,1.2,1.2,99,0.00,CLR,,0.34,WeatherDisplay:10.37,2013-03-23 03:40:00,
2013-03-22 22:45:00,35.8,35.5,28.49,West,270,2.3,2.3,99,0.00,CLR,,0.34,WeatherDisplay:10.37,2013-03-23 03:45:00,
2013-03-22 22:50:00,35.8,35.5,28.49,NE,45,2.3,2.3,99,0.00,CLR,,0.34,WeatherDisplay:10.37,2013-03-23 03:50:00,
2013-03-22 22:55:00,35.8,35.5,28.49,North,360,2.3,2.3,99,0.00,CLR,,0.34,WeatherDisplay:10.37,2013-03-23 03:55:00,
2013-03-22 23:00:00,35.8,35.5,28.49,North,3,2.0,3.0,99,0.00,CLR,,0.34,WeatherDisplay:10.37,2013-03-23 04:00:00,
2013-03-22 23:04:00,35.8,35.5,28.49,East,90,2.3,2.3,99,0.00,CLR,,0.34,WeatherDisplay:10.37,2013-03-23 04:04:00,
2013-03-22 23:05:00,35.8,35.5,28.49,NNE,22,2.0,3.0,99,0.00,CLR,,0.34,WeatherDisplay:10.37,2013-03-23 04:05:00,
2013-03-22 23:10:00,35.8,35.5,28.49,North,351,2.0,3.0,99,0.00,CLR,,0.34,WeatherDisplay:10.37,2013-03-23 04:10:00,
2013-03-22 23:15:00,35.8,35.5,28.48,NNW,345,2.0,3.0,99,0.00,CLR,,0.34,WeatherDisplay:10.37,2013-03-23 04:15:00,
2013-03-22 23:20:00,35.8,35.5,28.48,NNW,346,2.0,4.0,99,0.00,CLR,,0.34,WeatherDisplay:10.37,2013-03-23 04:20:00,
2013-03-22 23:25:00,35.8,35.5,28.48,NNW,347,2.0,5.0,99,0.00,CLR,,0.34,WeatherDisplay:10.37,2013-03-23 04:25:00,
2013-03-22 23:30:00,35.8,35.5,28.48,North,352,2.0,3.0,99,0.00,CLR,,0.34,WeatherDisplay:10.37,2013-03-23 04:30:00,
2013-03-22 23:35:00,35.8,35.5,28.48,North,356,3.0,4.0,99,0.00,CLR,,0.34,WeatherDisplay:10.37,2013-03-23 04:35:00,
2013-03-22 23:40:00,35.8,35.5,28.50,North,356,5.0,6.0,99,0.00,CLR,,0.34,WeatherDisplay:10.37,2013-03-23 04:40:00,
2013-03-22 23:45:00,36.0,35.8,28.50,North,9,3.0,6.0,99,0.00,CLR,,0.34,WeatherDisplay:10.37,2013-03-23 04:45:00,
2013-03-22 23:50:00,35.8,35.5,28.48,North,10,3.0,6.0,99,0.00,CLR,,0.34,WeatherDisplay:10.37,2013-03-23 04:50:00,
2013-03-22 23:55:00,35.8,35.5,28.48,North,10,3.0,5.0,99,0.00,CLR,,0.34,WeatherDisplay:10.37,2013-03-23 04:55:00,